»·PEaware :: N265K F70-KTOA

N265K :: F70-KTOA

FLIGHT INFORMATION

Flight Status: Arrived
Operator: Privately registered:
United States
More flights under this callsign
Pilot: Tytus A. (10113)
Aircraft: CESSNA 210 CENTURION
(C210)
More flights by this aircraft type
Origin: F70 French Valley
United States
Destination: KTOA Zamperini
United States
More flights between these airports :: More routes between these airports
Route: +HDF PDZ PDZ270/015 DOWDD V394 SLI
File this flight plan on PilotEdge
Remarks: I'll accept a hold if you can work it in
Altitude:
(Current/Filed)
8,000ft
Speed:
(Current/Filed)
160kts
Departed: 22-Apr-20 08:57 PM
Arrived: 22-Apr-20 09:37 PM
Distance/Time
Traveled:
62nm/0:39
Distance/Time
To Go:
Arrived

Flight Plot

Page will automatically refresh every two minutes.

Flight plan parsing failed; only flown route is shown


Map Options




Map Legend


Flown Route
Filed Route
Departure Airport
Arrival Airport
Navaid (VOR, NDB)
Fix

Horizontal Profiles

Position Reports

Time Latitude Longitude Heading Altitude Ground
Speed
22-Apr-20 20:34 33.581741 -117.127191 226 1353ft 10kts
22-Apr-20 20:35 33.581345 -117.127516 100 1353ft 0kts
22-Apr-20 20:36 33.581345 -117.127515 100 1353ft 0kts
22-Apr-20 20:37 33.581344 -117.127514 101 1353ft 0kts
22-Apr-20 20:38 33.581344 -117.127514 101 1353ft 0kts
22-Apr-20 20:39 33.581344 -117.127513 101 1353ft 0kts
22-Apr-20 20:40 33.581344 -117.127513 101 1353ft 0kts
22-Apr-20 20:41 33.581344 -117.127512 101 1353ft 0kts
22-Apr-20 20:42 33.581344 -117.127512 101 1353ft 0kts
22-Apr-20 20:43 33.581344 -117.127511 101 1353ft 0kts
22-Apr-20 20:44 33.581344 -117.127511 101 1353ft 0kts
22-Apr-20 20:45 33.581344 -117.127510 101 1353ft 0kts
22-Apr-20 20:46 33.581344 -117.127509 101 1353ft 0kts
22-Apr-20 20:47 33.581344 -117.127509 101 1353ft 0kts
22-Apr-20 20:48 33.581343 -117.127508 101 1353ft 0kts
22-Apr-20 20:49 33.581343 -117.127508 102 1353ft 0kts
22-Apr-20 20:50 33.581343 -117.127507 102 1353ft 0kts
22-Apr-20 20:51 33.581343 -117.127507 102 1353ft 0kts
22-Apr-20 20:52 33.581343 -117.127506 102 1353ft 0kts
22-Apr-20 20:53 33.581343 -117.127505 102 1353ft 0kts
22-Apr-20 20:54 33.582168 -117.127151 45 1353ft 0kts
22-Apr-20 20:55 33.581635 -117.126510 189 1353ft 9kts
22-Apr-20 20:57 33.565823 -117.130323 200 1721ft 100kts
22-Apr-20 20:58 33.561849 -117.156917 306 3172ft 82kts
22-Apr-20 20:59 33.594125 -117.161768 356 3747ft 144kts
22-Apr-20 21:00 33.637618 -117.161348 354 3972ft 166kts
22-Apr-20 21:01 33.684916 -117.161318 354 3935ft 167kts
22-Apr-20 21:02 33.730053 -117.163598 351 3938ft 160kts
22-Apr-20 21:03 33.771229 -117.178862 312 3954ft 151kts
22-Apr-20 21:04 33.791241 -117.222401 294 3941ft 151kts
22-Apr-20 21:05 33.810041 -117.266596 292 3938ft 145kts
22-Apr-20 21:06 33.827679 -117.309151 292 3938ft 140kts
22-Apr-20 21:07 33.844995 -117.351001 292 3939ft 139kts
22-Apr-20 21:08 33.862525 -117.393416 293 3945ft 145kts
22-Apr-20 21:09 33.880377 -117.436612 293 3941ft 145kts
22-Apr-20 21:10 33.898459 -117.480391 293 3940ft 146kts
22-Apr-20 21:11 33.916570 -117.524322 293 3940ft 146kts
22-Apr-20 21:12 33.928313 -117.570808 283 3940ft 145kts
22-Apr-20 21:13 33.939095 -117.617927 283 3940ft 145kts
22-Apr-20 21:13 33.947934 -117.656977 283 3940ft 146kts
22-Apr-20 21:15 33.960307 -117.711995 283 3940ft 146kts
22-Apr-20 21:15 33.969107 -117.751270 283 3939ft 146kts
22-Apr-20 21:16 33.979045 -117.798602 283 3940ft 145kts
22-Apr-20 21:18 33.961322 -117.842457 208 3950ft 150kts
22-Apr-20 21:18 33.929301 -117.859702 206 3940ft 151kts
22-Apr-20 21:19 33.888886 -117.871951 183 3961ft 155kts
22-Apr-20 21:20 33.845554 -117.870749 182 3939ft 156kts
22-Apr-20 21:21 33.802512 -117.869393 183 3986ft 154kts
22-Apr-20 21:22 33.759389 -117.868179 182 3985ft 155kts
22-Apr-20 21:23 33.716142 -117.867071 183 3985ft 156kts
22-Apr-20 21:24 33.692979 -117.895048 271 4033ft 144kts
22-Apr-20 21:25 33.695181 -117.943771 272 3983ft 145kts
22-Apr-20 21:26 33.697570 -117.992140 272 3986ft 145kts
22-Apr-20 21:27 33.700072 -118.040510 272 3986ft 145kts
22-Apr-20 21:28 33.701247 -118.087605 271 3055ft 145kts
22-Apr-20 21:29 33.703691 -118.135019 273 2114ft 137kts
22-Apr-20 21:30 33.708946 -118.176184 284 1949ft 121kts
22-Apr-20 21:31 33.723646 -118.211347 301 2039ft 121kts
22-Apr-20 21:32 33.741296 -118.245496 304 1960ft 111kts
22-Apr-20 21:33 33.758839 -118.270547 307 1630ft 99kts
22-Apr-20 21:34 33.776157 -118.297366 308 1067ft 105kts
22-Apr-20 21:35 33.795041 -118.325602 312 342ft 108kts
22-Apr-20 21:36 33.805751 -118.343434 281 106ft 15kts
22-Apr-20 21:37 33.805552 -118.347077 132 106ft 14kts
22-Apr-20 21:38 33.805064 -118.346492 126 106ft 0kts

Navigation Log

Ident Type
Flight plan parsing failed, navigation log unavailable